NEW EXCHEQUER-LK MCCLURE (EXC)

Elevation: 879' · MERCED R basin · Operator: Merced Irrigation District

Provisional data, subject to change.
Query executed Saturday at 3:04:07   clock

Select a sensor type for a plot of data.
Note: Reservoir Flows are daily averages.

Earlier

Date RES ELE    STORAGE    RES CHG    TOC STO    ABV TOC    OUTFLOW    INFLOW    PPT INC    TEMP MN    TEMP MX    TEMP AV    EVP PAN   
 FEET   AF   AF   AF   AF   CFS   CFS   INCHES   DEG F   DEG F   DEG F   INCHES  
07/28/2016 778.17 526638 -2661 1014210 -487572 1751 129 0.00 78 103 90 5.37
07/29/2016 777.35 523136 -2649 1019405 -496269 1818 52 0.00 77 105 91 0.00
07/30/2016 776.52 519610 -2805 1024600 -504990 1899 121 0.00 78 102 90 0.00
07/31/2016 775.78 516479 -2624 1024600 -508121 1732 153 0.00 74 99 85 0.50
08/01/2016 774.94 512945 -2652 1024600 -- 1900 118 0.00 64 97 81 0.42
08/02/2016 774.30 510263 -3062 1024600 -514337 1510 157 0.00 69 96 83 0.42
08/03/2016 773.65 507550 -2213 1024600 -517050 1496 128 0.00 71 97 84 0.45
08/04/2016 772.93 504559 -2328 1024600 -520041 1611 103 0.00 70 95 81 0.45
08/05/2016 772.22 501621 -2030 1024600 -522979 1624 143 0.00 56 89 73 0.34
08/06/2016 771.59 499024 -2021 1024600 -525576 1455 146 0.00 65 92 78 0.37
08/07/2016 770.84 495946 -2381 1024600 -528654 1668 116 0.00 64 92 78 21791.00
08/08/2016 770.23 493453 -2166 1024600 -531147 1357 99 0.00 67 94 80 24003.00
08/09/2016 769.58 490808 -2361 1024600 -533792 1444 110 0.00 67 91 79 0.37
08/10/2016 768.98 488375 -2069 1024600 -536225 1308 81 0.00 69 92 80 0.39
08/11/2016 768.36 485870 -2142 1024600 -538730 1369 106 0.00 70 95 82 0.41
08/12/2016 767.78 483535 -2013 1024600 -541065 1264 87 0.00 71 97 84 0.44
08/13/2016 767.24 481369 -1965 1024600 -543231 1176 84 0.00 72 100 86 13647.00
08/14/2016 766.70 479211 -1958 1024600 -545389 1161 73 0.00 75 103 88 0.00
08/15/2016 766.10 476821 -2191 1024600 -547779 1115 0 0.00 73 98 84 0.00
08/16/2016 765.53 474558 -2064 1024600 -550042 1240 98 0.00 72 97 84 0.44
08/17/2016 764.95 472265 -1859 1024600 -552335 1235 79 0.00 73 100 86 0.46
08/18/2016 764.19 469272 -2404 1024600 -555328 1564 55 0.00 74 100 86 23158.00
08/19/2016 763.50 466566 -2276 1024600 -558034 1477 112 0.00 72 98 84 0.43
08/20/2016 762.87 464105 -1992 1024600 -560495 1357 115 0.00 72 96 83 0.00
08/21/2016 762.19 461462 -2177 1024600 -563138 1397 64 0.00 72 95 83 0.46
08/22/2016 761.51 458829 -2092 1024600 -565771 1431 103 0.00 70 93 81 0.36
08/23/2016 760.95 456670 -1928 1024600 -567930 1182 93 0.00 66 93 80 0.43
08/24/2016 760.39 454518 -1923 1024600 -570082 1183 97 0.00 69 94 80 0.40
08/25/2016 759.78 452181 -2031 1024600 -572419 1238 59 0.00 67 92 79 0.38
08/26/2016 -- -- -- -- -- -- -- -- -- -- -- 0.33
08/27/2016 -- -- -- -- -- -- -- -- -- -- -- --

Later | Latest

Warning! This data is preliminary and subject to revision.

Show EXC Map | Plot EXC Data | 1 Month EXC Data | Real-Time EXC Data | EXC Info